Ware, MA (01082)

8:15 PM EST on February 19, 2017 (GMT -0500)
Quabbin South East | | Change Station

Elev 594 ft 42.27 °N, 72.26 °W | Updated 31 seconds ago

Clear
Clear
39.4 °F
Feels Like 39 °F
N
0.0
Wind Variable Wind from SW

Today
High -- | Low -- °F
--% Chance of Precip.
Yesterday
High -- | Low -- °F
Precip. -- in
Pressure 29.89 in
Visibility 10.0 miles
Clouds Few 5000 ft
Windchill 39 °F
Dew Point 32 °F
Humidity 75%
Rainfall 0.00 in
Snow Depth Not available.
6:39 AM 5:26 PM
Last Quarter, 38% visible
METAR KCEF 200058Z 27006KT 10SM FEW050 08/M01 A2987 RMK AO2A SLP122 T00781008
Pressure 29.89 in
Visibility 10.0 miles
Clouds Few 5000 ft
Windchill 39 °F
Dew Point 32 °F
Humidity 75%
Rainfall 0.00 in
Snow Depth Not available.
6:39 AM 5:26 PM
Last Quarter, 38% visible
METAR KCEF 200058Z 27006KT 10SM FEW050 08/M01 A2987 RMK AO2A SLP122 T00781008

Get Your Daily Forecast Email!

Thanks for signing up!

Be on the lookout for a verification email in your inbox.

You'll start receiving the daily forecast at 8 AM.

×

10-Day Weather Forecast

Almanac

Astronomy

Feb. 19, 2017 Rise Set
Actual Time
Civil Twilight
Nautical Twilight
Astronomical Twilight
Moon
Length of Visible Light
Length of Day
Tomorrow will be .
, % of the Moon is Illuminated

Today's Extremes

State Highs State Lows

Community

WunderPhotos

Upload Photos

1,962,540 photos uploaded!

WunderBlog® & News

Nearby

Air Quality

  Air Quality AQ Index Pollutant
Not available.

Snow Depth

Station Depth Elevation

Earthquake Activity

City Distance Mag. Time & Date
Minimum magnitude displayed is 2.5.

Coastal Water Temperatures

Place Temperature

Stations

Nearby Weather Stations

Station Location Temp. Windchill Dew Point Humidity Wind Precip. Elev Updated Type
                   

Watches & Warnings

There are currently no watches in effect.